createdAt,value
2022-10-31T00:02:36.581Z,32.22
2022-10-31T00:05:43.255Z,23.13
2022-10-31T00:08:52.955Z,31.90
2022-10-31T00:11:54.530Z,27.30
2022-10-31T00:14:56.039Z,37.33
2022-10-31T00:17:59.380Z,29.55
2022-10-31T00:21:02.745Z,30.33
2022-10-31T00:24:04.779Z,24.65
2022-10-31T00:27:06.441Z,32.65
2022-10-31T00:30:08.514Z,36.25
2022-10-31T00:33:10.061Z,32.53
2022-10-31T00:36:14.585Z,30.65
2022-10-31T00:39:16.386Z,34.53
2022-10-31T00:42:17.950Z,34.65
2022-10-31T00:45:19.531Z,37.90
2022-10-31T00:48:21.031Z,30.30
2022-10-31T00:51:22.586Z,33.50
2022-10-31T00:54:24.117Z,35.63
2022-10-31T00:57:25.681Z,29.50
2022-10-31T01:00:27.531Z,36.03
2022-10-31T01:03:32.416Z,31.00
2022-10-31T01:06:33.976Z,36.47
2022-10-31T01:09:35.861Z,25.27
2022-10-31T01:12:39.002Z,27.73
2022-10-31T01:15:40.575Z,28.40
2022-10-31T01:18:42.963Z,27.92
2022-10-31T01:21:44.507Z,34.03
2022-10-31T01:24:46.055Z,31.17
2022-10-31T01:27:47.599Z,33.38
2022-10-31T01:30:49.148Z,38.88
2022-10-31T01:33:51.062Z,27.73
2022-10-31T01:36:52.991Z,34.13
2022-10-31T01:39:54.572Z,29.00
2022-10-31T01:42:56.264Z,28.50
2022-10-31T01:45:57.930Z,32.65
2022-10-31T01:49:03.291Z,26.90
2022-10-31T01:52:10.291Z,34.08
2022-10-31T01:55:21.123Z,30.17
2022-10-31T01:58:28.601Z,25.10
2022-10-31T02:01:30.501Z,29.45
2022-10-31T02:04:32.210Z,30.20
2022-10-31T02:07:51.970Z,28.40
2022-10-31T02:10:54.071Z,26.93
2022-10-31T02:13:55.805Z,27.95
2022-10-31T02:16:58.683Z,37.75
2022-10-31T02:20:16.940Z,38.75
2022-10-31T02:23:45.228Z,26.88
2022-10-31T02:27:10.017Z,33.83
2022-10-31T02:30:24.476Z,34.60
2022-10-31T02:33:46.193Z,37.97
2022-10-31T02:37:02.845Z,43.22
2022-10-31T02:40:24.494Z,37.47
2022-10-31T02:43:30.275Z,40.40
2022-10-31T02:46:46.489Z,37.67
2022-10-31T02:50:12.040Z,38.60
2022-10-31T02:53:16.418Z,41.67
2022-10-31T02:56:19.884Z,35.10
2022-10-31T02:59:22.559Z,31.88
2022-10-31T03:02:36.260Z,39.78
2022-10-31T03:05:56.264Z,42.00
2022-10-31T03:09:12.277Z,32.95
2022-10-31T03:12:36.402Z,33.60
2022-10-31T03:15:49.739Z,30.65
2022-10-31T03:18:56.736Z,42.38
2022-10-31T03:22:21.855Z,39.13
2022-10-31T03:25:24.312Z,29.92
2022-10-31T03:28:31.740Z,36.10
2022-10-31T03:32:01.406Z,43.90
2022-10-31T03:35:05.174Z,36.78
2022-10-31T03:38:08.068Z,53.63
2022-10-31T03:41:14.781Z,37.92
2022-10-31T03:44:20.102Z,52.45
2022-10-31T03:47:22.100Z,37.60
2022-10-31T03:50:29.494Z,39.53
2022-10-31T03:53:41.849Z,42.47
2022-10-31T03:56:56.713Z,32.22
2022-10-31T04:00:07.266Z,45.92
2022-10-31T04:06:18.934Z,34.97
2022-10-31T04:09:21.310Z,31.10
2022-10-31T04:12:25.196Z,40.72
2022-10-31T04:15:28.225Z,39.30
2022-10-31T04:18:29.866Z,41.22
2022-10-31T04:21:31.858Z,33.78
2022-10-31T04:24:34.528Z,34.35
2022-10-31T04:27:36.068Z,36.38
2022-10-31T04:30:37.810Z,29.65
2022-10-31T04:33:39.407Z,31.48
2022-10-31T04:36:40.962Z,26.10
2022-10-31T04:39:42.493Z,32.03
2022-10-31T04:42:44.035Z,33.50
2022-10-31T04:45:45.598Z,33.92
2022-10-31T04:48:47.180Z,32.55
2022-10-31T04:51:48.778Z,34.80
2022-10-31T04:54:50.331Z,37.00
2022-10-31T04:57:51.916Z,33.72
2022-10-31T05:00:54.683Z,39.63
2022-10-31T05:03:56.360Z,36.22
2022-10-31T05:06:57.864Z,40.13
2022-10-31T05:09:59.397Z,30.77
2022-10-31T05:13:03.121Z,37.13
2022-10-31T05:16:05.356Z,37.97
2022-10-31T05:19:07.117Z,43.55
2022-10-31T05:22:08.670Z,34.65
2022-10-31T05:25:10.333Z,31.98
2022-10-31T05:28:11.857Z,35.45
2022-10-31T05:31:13.491Z,40.15
2022-10-31T05:34:15.027Z,32.40
2022-10-31T05:37:16.535Z,41.20
2022-10-31T05:40:19.986Z,29.60
2022-10-31T05:43:21.541Z,38.08
2022-10-31T05:46:23.095Z,43.90
2022-10-31T05:49:24.735Z,38.15
2022-10-31T05:52:26.242Z,38.03
2022-10-31T05:55:28.682Z,36.88
2022-10-31T05:58:30.207Z,33.45
2022-10-31T06:01:31.767Z,31.27
2022-10-31T06:04:33.423Z,35.80
2022-10-31T06:07:36.198Z,34.75
2022-10-31T06:10:37.727Z,33.60
2022-10-31T06:13:39.303Z,39.83
2022-10-31T06:16:40.938Z,31.92
2022-10-31T06:19:42.539Z,36.65
2022-10-31T06:22:44.157Z,33.88
2022-10-31T06:25:52.298Z,32.15
2022-10-31T06:28:53.898Z,34.47
2022-10-31T06:31:55.442Z,33.00
2022-10-31T06:34:56.981Z,42.90
2022-10-31T06:37:58.734Z,43.95
2022-10-31T06:41:06.641Z,43.20
2022-10-31T06:44:09.035Z,38.17
2022-10-31T06:47:10.667Z,44.03
2022-10-31T06:50:12.257Z,40.28
2022-10-31T06:53:15.155Z,39.33
2022-10-31T06:56:16.784Z,40.45
2022-10-31T06:59:18.831Z,44.90
2022-10-31T07:02:20.445Z,37.97
2022-10-31T07:05:22.192Z,33.45
2022-10-31T07:08:24.205Z,34.95
2022-10-31T07:11:25.773Z,41.15
2022-10-31T07:14:27.346Z,36.85
2022-10-31T07:17:30.215Z,45.40
2022-10-31T07:20:37.104Z,40.42
2022-10-31T07:23:38.677Z,36.03
2022-10-31T07:26:40.298Z,41.95
2022-10-31T07:29:41.874Z,43.28
2022-10-31T07:32:51.129Z,42.78
2022-10-31T07:35:53.129Z,28.83
2022-10-31T07:38:54.700Z,41.78
2022-10-31T07:41:59.639Z,35.03
2022-10-31T07:45:01.196Z,38.33
2022-10-31T07:48:03.467Z,38.65
2022-10-31T07:51:20.537Z,35.20
2022-10-31T07:54:36.554Z,56.65
2022-10-31T07:58:20.294Z,41.08
2022-10-31T08:01:58.163Z,42.72
2022-10-31T08:05:01.114Z,39.97
2022-10-31T08:08:04.730Z,42.67
2022-10-31T08:11:06.450Z,43.67
2022-10-31T08:14:08.002Z,44.22
2022-10-31T08:17:09.562Z,38.97
2022-10-31T08:20:11.294Z,41.85
2022-10-31T08:23:14.189Z,42.85
2022-10-31T08:26:15.730Z,37.13
2022-10-31T08:29:17.276Z,34.65
2022-10-31T08:32:18.826Z,35.30
2022-10-31T08:35:20.371Z,49.05
2022-10-31T08:38:22.497Z,50.70
2022-10-31T08:41:24.157Z,48.75
2022-10-31T08:44:25.662Z,49.95
2022-10-31T08:47:28.718Z,57.33
2022-10-31T08:50:31.797Z,54.30
2022-10-31T08:53:33.572Z,54.95
2022-10-31T08:56:35.144Z,56.88
2022-10-31T08:59:36.714Z,53.85
2022-10-31T09:02:39.311Z,50.92
2022-10-31T09:05:41.093Z,51.20
2022-10-31T09:08:42.732Z,71.68
2022-10-31T09:11:44.262Z,63.78
2022-10-31T09:14:45.790Z,54.05
2022-10-31T09:17:48.779Z,57.72
2022-10-31T09:20:51.285Z,54.47
2022-10-31T09:23:54.805Z,56.40
2022-10-31T09:26:56.336Z,61.50
2022-10-31T09:29:57.901Z,60.97
2022-10-31T09:33:01.665Z,66.82
2022-10-31T09:36:03.791Z,62.90
2022-10-31T09:39:05.506Z,58.38
2022-10-31T09:42:15.726Z,61.13
2022-10-31T09:45:33.888Z,68.47
2022-10-31T09:48:45.602Z,65.05
2022-10-31T09:51:56.115Z,63.42
2022-10-31T09:58:02.819Z,48.92
2022-10-31T10:01:05.696Z,59.00
2022-10-31T10:04:34.873Z,61.45
2022-10-31T10:08:03.540Z,55.97
2022-10-31T10:11:33.379Z,51.33
2022-10-31T10:14:44.286Z,54.40
2022-10-31T10:18:13.169Z,51.53
2022-10-31T10:21:38.775Z,44.33
2022-10-31T10:24:43.392Z,49.10
2022-10-31T10:28:24.433Z,60.35
2022-10-31T10:31:32.535Z,54.47
2022-10-31T10:34:50.118Z,56.15
2022-10-31T10:37:58.368Z,45.53
2022-10-31T10:41:05.705Z,55.55
2022-10-31T10:44:11.067Z,55.67
2022-10-31T10:47:31.570Z,48.00
2022-10-31T10:54:00.271Z,40.35
2022-10-31T10:57:08.946Z,48.58
2022-10-31T11:00:43.145Z,47.83
2022-10-31T11:03:44.751Z,51.42
2022-10-31T11:06:47.969Z,42.15
2022-10-31T11:09:49.885Z,46.10
2022-10-31T11:13:01.415Z,52.85
2022-10-31T11:16:08.929Z,52.58
2022-10-31T11:19:13.226Z,47.88
2022-10-31T11:22:21.457Z,44.92
2022-10-31T11:25:25.253Z,39.90
2022-10-31T11:28:30.212Z,38.22
2022-10-31T11:31:33.812Z,44.45
2022-10-31T11:34:43.842Z,38.17
2022-10-31T11:37:47.059Z,32.30
2022-10-31T11:41:19.366Z,49.33
2022-10-31T11:44:28.180Z,37.45
2022-10-31T11:47:33.342Z,42.58
2022-10-31T11:50:43.376Z,46.53
2022-10-31T11:53:56.723Z,40.33
2022-10-31T11:57:01.765Z,39.90
2022-10-31T12:00:07.106Z,35.47
2022-10-31T12:03:28.378Z,35.72
2022-10-31T12:06:34.355Z,32.33
2022-10-31T12:09:37.751Z,39.53
2022-10-31T12:13:16.756Z,35.55
2022-10-31T12:16:35.106Z,42.17
2022-10-31T12:20:07.190Z,30.45
2022-10-31T12:23:35.639Z,30.83
2022-10-31T12:27:01.990Z,39.30
2022-10-31T12:30:24.912Z,36.60
2022-10-31T12:33:38.034Z,36.13
2022-10-31T12:37:01.016Z,37.85
2022-10-31T12:40:40.625Z,33.72
2022-10-31T12:43:45.356Z,30.80
2022-10-31T12:46:46.933Z,30.90
2022-10-31T12:50:16.496Z,30.40
2022-10-31T12:53:48.379Z,35.47
2022-10-31T12:57:23.231Z,24.13
2022-10-31T13:00:30.339Z,35.83
2022-10-31T13:03:40.141Z,29.13
2022-10-31T13:06:47.677Z,30.98
2022-10-31T13:10:14.359Z,34.67
2022-10-31T13:13:21.795Z,29.63
2022-10-31T13:16:29.587Z,31.58
2022-10-31T13:19:46.159Z,35.80
2022-10-31T13:22:52.008Z,30.10
2022-10-31T13:25:56.895Z,23.92
2022-10-31T13:29:05.932Z,33.15
2022-10-31T13:32:08.493Z,30.00
2022-10-31T13:35:24.669Z,33.53
2022-10-31T13:38:42.706Z,23.35
2022-10-31T13:41:53.003Z,21.90
2022-10-31T13:44:54.619Z,19.60
2022-10-31T13:48:32.641Z,19.92
2022-10-31T13:51:35.986Z,20.45
2022-10-31T13:54:41.735Z,24.13
2022-10-31T13:57:44.761Z,23.92
2022-10-31T14:00:46.474Z,27.17
2022-10-31T14:04:11.223Z,25.08
2022-10-31T14:07:17.365Z,42.17
2022-10-31T14:10:29.424Z,21.63
2022-10-31T14:13:38.311Z,19.98
2022-10-31T14:16:43.829Z,15.48
2022-10-31T14:20:00.968Z,13.93
2022-10-31T14:23:31.490Z,24.67
2022-10-31T14:29:35.749Z,13.85
2022-10-31T14:32:37.715Z,25.33
2022-10-31T14:36:02.599Z,21.25
2022-10-31T14:39:28.897Z,22.90
2022-10-31T14:42:30.485Z,21.08
2022-10-31T14:45:51.841Z,17.92
2022-10-31T14:49:05.521Z,17.75
2022-10-31T14:52:09.430Z,19.05
2022-10-31T14:55:14.075Z,15.30
2022-10-31T14:58:21.644Z,14.80
2022-10-31T15:01:30.565Z,10.52
2022-10-31T15:04:33.625Z,17.25
2022-10-31T15:07:37.581Z,18.05
2022-10-31T15:10:45.373Z,24.00
2022-10-31T15:13:52.221Z,18.70
2022-10-31T15:16:54.883Z,19.40
2022-10-31T15:19:57.461Z,20.38
2022-10-31T15:23:00.506Z,21.73
2022-10-31T15:26:06.509Z,13.98
2022-10-31T15:29:17.087Z,28.23
2022-10-31T15:32:23.633Z,25.10
2022-10-31T15:35:30.345Z,17.33
2022-10-31T15:38:31.972Z,20.10
2022-10-31T15:41:53.242Z,18.45
2022-10-31T15:45:13.884Z,28.15
2022-10-31T15:48:23.125Z,18.52
2022-10-31T15:51:34.778Z,23.83
2022-10-31T15:54:43.436Z,21.45
2022-10-31T15:57:47.967Z,21.10
2022-10-31T16:01:20.070Z,26.05
2022-10-31T16:04:24.872Z,20.67
2022-10-31T16:07:27.292Z,20.35
2022-10-31T16:10:35.979Z,17.00
2022-10-31T16:13:42.041Z,21.50
2022-10-31T16:16:49.103Z,20.23
2022-10-31T16:19:58.740Z,22.85
2022-10-31T16:23:01.952Z,23.93
2022-10-31T16:26:07.595Z,13.43
2022-10-31T16:29:29.698Z,24.10
2022-10-31T16:32:56.735Z,29.75
2022-10-31T16:36:09.616Z,24.45
2022-10-31T16:39:18.269Z,20.08
2022-10-31T16:42:19.977Z,16.52
2022-10-31T16:45:24.137Z,16.52
2022-10-31T16:48:25.721Z,25.08
2022-10-31T16:51:27.225Z,18.35
2022-10-31T16:54:30.358Z,24.85
2022-10-31T16:57:32.435Z,18.55
2022-10-31T17:00:33.958Z,17.58
2022-10-31T17:03:36.183Z,19.13
2022-10-31T17:06:37.750Z,19.98
2022-10-31T17:09:39.311Z,21.70
2022-10-31T17:12:45.079Z,24.45
2022-10-31T17:15:50.183Z,18.67
2022-10-31T17:18:51.725Z,31.65
2022-10-31T17:21:53.269Z,20.52
2022-10-31T17:24:56.933Z,19.35
2022-10-31T17:27:59.491Z,19.50
2022-10-31T17:31:01.672Z,22.63
2022-10-31T17:34:05.150Z,15.27
2022-10-31T17:37:07.595Z,19.35
2022-10-31T17:40:11.256Z,15.00
2022-10-31T17:43:13.023Z,18.75
2022-10-31T17:46:14.836Z,16.15
2022-10-31T17:49:16.500Z,21.70
2022-10-31T17:52:18.406Z,15.90
2022-10-31T17:55:20.568Z,28.25
2022-10-31T17:58:29.626Z,23.77
2022-10-31T18:01:31.844Z,25.33
2022-10-31T18:04:33.609Z,30.75
2022-10-31T18:07:36.232Z,13.30
2022-10-31T18:10:39.024Z,11.98
2022-10-31T18:13:41.339Z,12.43
2022-10-31T18:16:43.401Z,14.27
2022-10-31T18:19:48.691Z,15.13
2022-10-31T18:22:50.551Z,14.48
2022-10-31T18:25:55.505Z,18.13
2022-10-31T18:28:57.445Z,13.55
2022-10-31T18:31:59.476Z,16.55
2022-10-31T18:35:01.299Z,10.57
2022-10-31T18:38:14.226Z,13.57
2022-10-31T18:41:22.558Z,8.20
2022-10-31T18:44:27.995Z,13.18
2022-10-31T18:47:29.931Z,12.88
2022-10-31T18:50:34.895Z,12.98
2022-10-31T18:53:37.419Z,14.50
2022-10-31T18:56:39.287Z,14.43
2022-10-31T18:59:43.381Z,12.68
2022-10-31T19:02:45.283Z,13.38
2022-10-31T19:05:47.075Z,12.05
2022-10-31T19:08:49.304Z,16.67
2022-10-31T19:11:50.978Z,13.35
2022-10-31T19:14:52.561Z,15.45
2022-10-31T19:17:55.507Z,17.42
2022-10-31T19:21:04.511Z,18.95
2022-10-31T19:24:06.206Z,11.07
2022-10-31T19:27:10.101Z,12.40
2022-10-31T19:30:14.074Z,14.18
2022-10-31T19:33:17.948Z,15.30
2022-10-31T19:36:20.318Z,15.00
2022-10-31T19:39:22.032Z,10.13
2022-10-31T19:42:24.255Z,18.55
2022-10-31T19:45:26.009Z,10.40
2022-10-31T19:48:28.331Z,18.63
2022-10-31T19:51:32.960Z,14.15
2022-10-31T19:54:43.084Z,13.40
2022-10-31T19:58:01.956Z,18.80
2022-10-31T20:01:09.152Z,13.80
2022-10-31T20:04:11.051Z,10.23
2022-10-31T20:07:15.928Z,21.30
2022-10-31T20:10:17.652Z,13.45
2022-10-31T20:13:26.803Z,10.48
2022-10-31T20:16:37.341Z,11.25
2022-10-31T20:22:47.143Z,14.73
2022-10-31T20:25:50.037Z,16.17
2022-10-31T20:28:51.572Z,10.82
2022-10-31T20:31:53.078Z,18.00
2022-10-31T20:34:54.716Z,14.85
2022-10-31T20:37:56.636Z,17.52
2022-10-31T20:41:02.322Z,12.70
2022-10-31T20:44:03.971Z,11.55
2022-10-31T20:47:06.490Z,11.85
2022-10-31T20:50:08.274Z,16.00
2022-10-31T20:53:09.930Z,20.05
2022-10-31T20:56:16.994Z,20.13
2022-10-31T20:59:19.769Z,16.33
2022-10-31T21:02:21.516Z,14.13
2022-10-31T21:05:23.143Z,10.23
2022-10-31T21:08:25.560Z,15.82
2022-10-31T21:11:28.219Z,18.63
2022-10-31T21:14:29.801Z,14.07
2022-10-31T21:17:31.353Z,12.05
2022-10-31T21:20:33.121Z,10.63
2022-10-31T21:23:36.072Z,16.90
2022-10-31T21:26:40.712Z,16.65
2022-10-31T21:29:42.291Z,16.27
2022-10-31T21:32:43.877Z,17.80
2022-10-31T21:35:52.260Z,12.75
2022-10-31T21:38:55.334Z,15.40
2022-10-31T21:42:00.748Z,19.77
2022-10-31T21:45:02.360Z,15.82
2022-10-31T21:48:04.303Z,14.70
2022-10-31T21:51:09.063Z,26.42
2022-10-31T21:54:30.169Z,14.55
2022-10-31T21:57:32.001Z,21.33
2022-10-31T22:00:33.750Z,24.77
2022-10-31T22:03:39.583Z,19.80
2022-10-31T22:06:41.185Z,17.90
2022-10-31T22:09:47.114Z,14.60
2022-10-31T22:12:48.644Z,12.90
2022-10-31T22:15:50.249Z,15.73
2022-10-31T22:18:53.919Z,16.67
2022-10-31T22:21:55.467Z,14.75
2022-10-31T22:24:57.025Z,12.90
2022-10-31T22:27:58.733Z,13.38
2022-10-31T22:31:05.310Z,14.48
2022-10-31T22:34:07.551Z,16.05
2022-10-31T22:37:09.162Z,12.40
2022-10-31T22:40:11.234Z,13.98
2022-10-31T22:43:12.985Z,12.82
2022-10-31T22:46:23.792Z,9.85
2022-10-31T22:49:25.492Z,15.20
2022-10-31T22:52:27.248Z,14.07
2022-10-31T22:55:29.114Z,17.30
2022-10-31T22:58:32.258Z,19.00
2022-10-31T23:01:34.623Z,13.38
2022-10-31T23:04:36.425Z,16.83
2022-10-31T23:07:40.334Z,14.10
2022-10-31T23:10:42.216Z,14.23
2022-10-31T23:14:04.377Z,15.55
2022-10-31T23:17:05.998Z,12.60
2022-10-31T23:20:08.020Z,16.75
2022-10-31T23:23:09.536Z,19.65
2022-10-31T23:26:29.502Z,22.33
2022-10-31T23:29:31.118Z,19.00
2022-10-31T23:32:35.935Z,11.57
2022-10-31T23:35:37.785Z,11.60
2022-10-31T23:38:39.501Z,15.00
2022-10-31T23:41:41.373Z,22.63
2022-10-31T23:44:43.200Z,15.80
2022-10-31T23:47:44.767Z,16.17
2022-10-31T23:50:52.046Z,19.60
2022-10-31T23:53:53.622Z,19.05
2022-10-31T23:56:55.834Z,19.30
2022-10-31T23:59:57.380Z,15.93
